Time;durP1;ratioP1;P1;durP2;ratioP2;P2;SDS_P1;SDS_P2;PMS_P1;PMS_P2;Temp;Humidity;BMP_temperature;BMP_pressure;BME280_temperature;BME280_humidity;BME280_pressure;Samples;Min_cycle;Max_cycle;Signal;HPM_P1;HPM_P2
2024/03/23 00:00:13;;;;;;;2.17;1.55;;;;;;;;;;5087780;28;20475;-65
2024/03/23 00:02:42;;;;;;;1.67;1.20;;;;;;;;;;5088689;28;20048;-66
2024/03/23 00:05:11;;;;;;;1.30;1.13;;;;;;;;;;5088295;28;20059;-65
2024/03/23 00:07:39;;;;;;;2.05;1.48;;;;;;;;;;5014011;28;20046;-65
2024/03/23 00:10:08;;;;;;;3.00;1.52;;;;;;;;;;4992472;28;20059;-65
2024/03/23 00:12:37;;;;;;;2.45;1.50;;;;;;;;;;4983143;28;20046;-65
2024/03/23 00:15:06;;;;;;;2.85;1.30;;;;;;;;;;4985211;28;20054;-67
2024/03/23 00:17:34;;;;;;;2.15;1.52;;;;;;;;;;4989875;28;20478;-66
2024/03/23 00:20:03;;;;;;;3.75;1.80;;;;;;;;;;5004411;28;20053;-66
2024/03/23 00:22:32;;;;;;;3.25;1.80;;;;;;;;;;5005442;28;20053;-66
2024/03/23 00:25:01;;;;;;;4.20;1.80;;;;;;;;;;5005103;28;20399;-65
2024/03/23 00:27:30;;;;;;;3.42;1.75;;;;;;;;;;5003070;28;20065;-66
2024/03/23 00:29:59;;;;;;;2.03;1.58;;;;;;;;;;5002841;28;20057;-65
2024/03/23 00:32:28;;;;;;;1.55;1.40;;;;;;;;;;5004396;28;20046;-66
2024/03/23 00:34:57;;;;;;;4.53;1.58;;;;;;;;;;5003950;28;20494;-66
2024/03/23 00:37:25;;;;;;;1.50;1.30;;;;;;;;;;5000444;28;20046;-68
2024/03/23 00:39:54;;;;;;;5.65;1.73;;;;;;;;;;5004330;28;20110;-67
2024/03/23 00:42:23;;;;;;;3.10;1.60;;;;;;;;;;5004940;28;20115;-65
2024/03/23 00:44:52;;;;;;;2.17;1.58;;;;;;;;;;5005175;28;20414;-67
2024/03/23 00:47:20;;;;;;;2.03;1.50;;;;;;;;;;5003887;28;20495;-66
2024/03/23 00:49:49;;;;;;;2.40;1.40;;;;;;;;;;5037588;28;20097;-66
2024/03/23 00:52:18;;;;;;;1.67;1.30;;;;;;;;;;5011092;28;20038;-67
2024/03/23 00:54:46;;;;;;;1.83;1.40;;;;;;;;;;5004159;28;20115;-65
2024/03/23 00:57:13;;;;;;;2.20;1.60;;;;;;;;;;5003983;28;20400;-65
2024/03/23 00:59:40;;;;;;;2.25;1.50;;;;;;;;;;5002934;28;20046;-68
2024/03/23 01:02:06;;;;;;;2.13;1.40;;;;;;;;;;5003951;28;20069;-66
2024/03/23 01:04:34;;;;;;;2.40;1.45;;;;;;;;;;5004592;28;20046;-68
2024/03/23 01:07:00;;;;;;;2.05;1.40;;;;;;;;;;5005983;28;20049;-66
2024/03/23 01:09:28;;;;;;;2.75;1.42;;;;;;;;;;5004678;28;20045;-65
2024/03/23 01:11:55;;;;;;;1.65;1.30;;;;;;;;;;5003235;28;20437;-68
2024/03/23 01:14:23;;;;;;;2.28;1.48;;;;;;;;;;5003625;28;20371;-66
2024/03/23 01:16:49;;;;;;;3.40;1.48;;;;;;;;;;5000777;28;20061;-68
2024/03/23 01:19:17;;;;;;;2.20;1.35;;;;;;;;;;5001305;28;20996;-66
2024/03/23 01:21:43;;;;;;;2.15;1.48;;;;;;;;;;5004845;28;20057;-67
2024/03/23 01:24:11;;;;;;;1.33;1.20;;;;;;;;;;5005171;28;20054;-66
2024/03/23 01:26:37;;;;;;;1.10;0.95;;;;;;;;;;5003925;28;20061;-66
2024/03/23 01:29:06;;;;;;;2.42;1.20;;;;;;;;;;5004082;28;20441;-65
2024/03/23 01:31:32;;;;;;;1.33;1.23;;;;;;;;;;5002229;28;20046;-67
2024/03/23 01:34:00;;;;;;;2.67;1.20;;;;;;;;;;5004791;28;20058;-69
2024/03/23 01:36:26;;;;;;;1.30;1.10;;;;;;;;;;4997701;28;20047;-65
2024/03/23 01:38:54;;;;;;;1.88;1.25;;;;;;;;;;4987829;28;20050;-67
2024/03/23 01:41:20;;;;;;;1.25;1.00;;;;;;;;;;4984935;28;20058;-65
2024/03/23 01:43:48;;;;;;;1.35;1.25;;;;;;;;;;4987129;28;20046;-67
2024/03/23 01:46:16;;;;;;;1.55;1.20;;;;;;;;;;4984759;28;20058;-69
2024/03/23 01:48:43;;;;;;;1.60;0.98;;;;;;;;;;4985838;28;20643;-65
2024/03/23 01:51:11;;;;;;;1.25;1.10;;;;;;;;;;4984555;28;20050;-65
2024/03/23 01:53:38;;;;;;;1.38;1.10;;;;;;;;;;4988125;28;20058;-67
2024/03/23 01:56:05;;;;;;;1.27;0.95;;;;;;;;;;4983740;28;20054;-66
2024/03/23 01:58:32;;;;;;;1.60;0.98;;;;;;;;;;4987078;28;20054;-65
2024/03/23 02:00:58;;;;;;;1.23;0.93;;;;;;;;;;4984028;28;20058;-65
2024/03/23 02:03:28;;;;;;;2.42;0.98;;;;;;;;;;4990205;28;20103;-64
2024/03/23 02:05:55;;;;;;;1.25;1.13;;;;;;;;;;4975297;28;20065;-66
2024/03/23 02:08:24;;;;;;;1.10;1.00;;;;;;;;;;4987405;28;20541;-65
2024/03/23 02:10:50;;;;;;;2.80;1.50;;;;;;;;;;4981362;28;20496;-68
2024/03/23 02:13:18;;;;;;;1.27;0.98;;;;;;;;;;4988149;28;20407;-65
2024/03/23 02:15:44;;;;;;;1.30;0.95;;;;;;;;;;4987750;28;20057;-64
2024/03/23 02:18:12;;;;;;;1.20;1.00;;;;;;;;;;4987553;28;20071;-65
2024/03/23 02:20:40;;;;;;;1.67;1.30;;;;;;;;;;4989168;28;20072;-66
2024/03/23 02:23:14;;;;;;;1.55;1.20;;;;;;;;;;4990206;28;20049;-67
2024/03/23 02:25:41;;;;;;;1.40;1.07;;;;;;;;;;5012857;28;20431;-65
2024/03/23 02:28:09;;;;;;;2.83;1.10;;;;;;;;;;4990229;28;20398;-65
2024/03/23 02:30:35;;;;;;;1.10;1.00;;;;;;;;;;4986559;28;20061;-63
2024/03/23 02:33:02;;;;;;;1.33;1.08;;;;;;;;;;4983646;28;20062;-67
2024/03/23 02:35:29;;;;;;;1.58;0.90;;;;;;;;;;4987915;28;20054;-66
2024/03/23 02:37:57;;;;;;;1.45;0.90;;;;;;;;;;5074507;28;20050;-66
2024/03/23 02:40:25;;;;;;;2.25;1.13;;;;;;;;;;5090511;28;20056;-67
2024/03/23 02:42:52;;;;;;;1.25;0.85;;;;;;;;;;5089737;28;20052;-65
2024/03/23 02:45:19;;;;;;;1.08;0.90;;;;;;;;;;5088892;28;20493;-66
2024/03/23 02:47:46;;;;;;;1.35;0.90;;;;;;;;;;5011222;28;20062;-67
2024/03/23 02:50:14;;;;;;;1.25;1.10;;;;;;;;;;4987865;28;20050;-67
2024/03/23 02:52:42;;;;;;;1.80;0.90;;;;;;;;;;4987498;28;20061;-66
2024/03/23 02:55:08;;;;;;;1.27;1.02;;;;;;;;;;4989027;28;20096;-65
2024/03/23 02:57:37;;;;;;;2.22;1.10;;;;;;;;;;4987276;28;20099;-66
2024/03/23 03:00:06;;;;;;;2.75;1.20;;;;;;;;;;4987664;28;20096;-69
2024/03/23 03:02:33;;;;;;;3.47;1.10;;;;;;;;;;4985598;28;20051;-66
2024/03/23 03:05:00;;;;;;;3.53;1.02;;;;;;;;;;4989053;28;20092;-66
2024/03/23 03:07:27;;;;;;;1.30;0.93;;;;;;;;;;4986246;28;20039;-64
2024/03/23 03:09:54;;;;;;;0.90;0.90;;;;;;;;;;4990958;28;20651;-65
2024/03/23 03:12:21;;;;;;;1.10;0.80;;;;;;;;;;4987624;28;20050;-67
2024/03/23 03:14:49;;;;;;;1.70;1.00;;;;;;;;;;4989399;28;20050;-66
2024/03/23 03:17:16;;;;;;;2.60;1.45;;;;;;;;;;4985588;28;20474;-67
2024/03/23 03:19:43;;;;;;;1.38;1.10;;;;;;;;;;4987928;28;20498;-66
2024/03/23 03:22:10;;;;;;;2.03;1.20;;;;;;;;;;4989317;28;20084;-65
2024/03/23 03:24:36;;;;;;;1.42;1.10;;;;;;;;;;4990313;28;20061;-67
2024/03/23 03:27:04;;;;;;;1.33;1.02;;;;;;;;;;4986265;28;20741;-65
2024/03/23 03:29:35;;;;;;;0.82;0.80;;;;;;;;;;4989495;28;20050;-66
2024/03/23 03:32:05;;;;;;;1.00;0.90;;;;;;;;;;4986320;28;20054;-64
2024/03/23 03:34:31;;;;;;;1.08;1.00;;;;;;;;;;4986168;28;20684;-65
2024/03/23 03:36:59;;;;;;;0.80;0.80;;;;;;;;;;4980064;28;20042;-65
2024/03/23 03:39:26;;;;;;;2.65;1.00;;;;;;;;;;4986855;28;20042;-66
2024/03/23 03:41:54;;;;;;;1.15;1.00;;;;;;;;;;4981182;28;20062;-66
2024/03/23 03:44:20;;;;;;;1.05;0.95;;;;;;;;;;4988257;28;20050;-65
2024/03/23 03:46:47;;;;;;;0.80;0.80;;;;;;;;;;4986881;28;20054;-65
2024/03/23 03:49:15;;;;;;;1.30;0.88;;;;;;;;;;4983671;28;20111;-66
2024/03/23 03:51:43;;;;;;;1.10;1.00;;;;;;;;;;4987282;28;20128;-70
2024/03/23 03:54:09;;;;;;;1.58;1.00;;;;;;;;;;4988546;28;20058;-66
2024/03/23 03:56:36;;;;;;;2.55;1.30;;;;;;;;;;4987529;28;20046;-65
2024/03/23 03:59:03;;;;;;;2.47;1.17;;;;;;;;;;4989105;28;20489;-65
2024/03/23 04:01:30;;;;;;;1.27;1.10;;;;;;;;;;4985983;28;20054;-68
2024/03/23 04:03:56;;;;;;;2.25;1.02;;;;;;;;;;4987909;28;20103;-67
2024/03/23 04:06:25;;;;;;;1.73;1.23;;;;;;;;;;4987222;28;20373;-70
2024/03/23 04:08:52;;;;;;;3.42;1.48;;;;;;;;;;4992988;28;20050;-65
2024/03/23 04:11:19;;;;;;;2.75;1.42;;;;;;;;;;4983565;28;20054;-65
2024/03/23 04:13:45;;;;;;;1.65;1.17;;;;;;;;;;4986327;28;20054;-65
2024/03/23 04:16:13;;;;;;;1.63;1.23;;;;;;;;;;4986158;28;20127;-65
2024/03/23 04:18:39;;;;;;;2.08;1.23;;;;;;;;;;4987390;28;20111;-65
2024/03/23 04:21:07;;;;;;;1.45;1.20;;;;;;;;;;4988459;28;20696;-68
2024/03/23 04:23:35;;;;;;;1.83;1.45;;;;;;;;;;4985699;28;20572;-66
2024/03/23 04:26:05;;;;;;;2.03;1.20;;;;;;;;;;4989578;28;20050;-64
2024/03/23 04:28:32;;;;;;;1.45;1.23;;;;;;;;;;5002287;28;20050;-64
2024/03/23 04:30:59;;;;;;;3.70;1.45;;;;;;;;;;5003435;28;20069;-67
2024/03/23 04:33:26;;;;;;;1.23;1.10;;;;;;;;;;5004771;28;20042;-66
2024/03/23 04:35:53;;;;;;;1.45;1.20;;;;;;;;;;5004914;28;20054;-67
2024/03/23 04:38:21;;;;;;;1.25;0.95;;;;;;;;;;5005351;28;20046;-65
2024/03/23 04:40:56;;;;;;;3.95;1.15;;;;;;;;;;5006368;28;20076;-65
2024/03/23 04:43:24;;;;;;;2.03;1.38;;;;;;;;;;5005204;28;20066;-66
2024/03/23 04:45:51;;;;;;;1.13;0.93;;;;;;;;;;5003906;28;20062;-65
2024/03/23 04:48:21;;;;;;;2.38;1.33;;;;;;;;;;5003283;28;20045;-66
2024/03/23 04:50:48;;;;;;;1.83;1.27;;;;;;;;;;5003436;28;20042;-65
2024/03/23 04:53:16;;;;;;;1.92;1.20;;;;;;;;;;5000442;28;20049;-64
2024/03/23 04:55:44;;;;;;;1.20;1.10;;;;;;;;;;5004750;28;20102;-66
2024/03/23 04:58:12;;;;;;;2.83;1.27;;;;;;;;;;5004467;28;20126;-66
2024/03/23 05:00:39;;;;;;;1.38;1.10;;;;;;;;;;5001403;28;20061;-70
2024/03/23 05:03:06;;;;;;;2.15;1.23;;;;;;;;;;5003699;28;20058;-67
2024/03/23 05:05:33;;;;;;;2.33;1.20;;;;;;;;;;5004941;28;20065;-68
2024/03/23 05:07:59;;;;;;;3.00;1.05;;;;;;;;;;5007371;28;20522;-67
2024/03/23 05:10:27;;;;;;;3.72;1.20;;;;;;;;;;4999051;28;20050;-66
2024/03/23 05:12:54;;;;;;;1.65;1.08;;;;;;;;;;5004400;28;20523;-68
2024/03/23 05:15:22;;;;;;;3.25;1.23;;;;;;;;;;5003472;28;20050;-65
2024/03/23 05:17:49;;;;;;;3.00;1.38;;;;;;;;;;4985954;28;20525;-65
2024/03/23 05:20:18;;;;;;;1.77;1.10;;;;;;;;;;4986342;28;20050;-65
2024/03/23 05:22:44;;;;;;;1.98;1.10;;;;;;;;;;4983684;28;20318;-66
2024/03/23 05:25:11;;;;;;;1.20;1.00;;;;;;;;;;4983159;28;20399;-65
2024/03/23 05:27:38;;;;;;;1.10;1.00;;;;;;;;;;4998069;28;20693;-66
2024/03/23 05:30:06;;;;;;;2.35;1.00;;;;;;;;;;5003686;28;20057;-65
2024/03/23 05:32:34;;;;;;;1.25;1.10;;;;;;;;;;5003119;28;20265;-64
2024/03/23 05:35:02;;;;;;;3.08;1.20;;;;;;;;;;5004190;28;20049;-66
2024/03/23 05:37:30;;;;;;;1.08;0.90;;;;;;;;;;5004220;28;20418;-65
2024/03/23 05:39:58;;;;;;;1.30;0.93;;;;;;;;;;4997979;28;20054;-70
2024/03/23 05:42:25;;;;;;;1.25;1.00;;;;;;;;;;4999791;28;21125;-68
2024/03/23 05:44:52;;;;;;;1.90;1.10;;;;;;;;;;5004145;28;20054;-65
2024/03/23 05:47:19;;;;;;;1.20;1.10;;;;;;;;;;4991261;28;20103;-66
2024/03/23 05:49:47;;;;;;;1.52;1.13;;;;;;;;;;4984539;28;20069;-67
2024/03/23 05:52:15;;;;;;;1.40;0.98;;;;;;;;;;4983529;28;20062;-66
2024/03/23 05:54:42;;;;;;;1.10;1.00;;;;;;;;;;4984615;28;20046;-66
2024/03/23 05:57:12;;;;;;;1.10;1.00;;;;;;;;;;4982184;28;20060;-65
2024/03/23 05:59:38;;;;;;;1.00;0.90;;;;;;;;;;4980907;28;20039;-68
2024/03/23 06:02:05;;;;;;;1.42;1.00;;;;;;;;;;4978173;28;20062;-67
2024/03/23 06:04:32;;;;;;;0.93;0.90;;;;;;;;;;4979114;28;20058;-65
2024/03/23 06:07:01;;;;;;;1.30;1.00;;;;;;;;;;4980507;28;20042;-67
2024/03/23 06:09:27;;;;;;;0.85;0.85;;;;;;;;;;4982039;28;20104;-66
2024/03/23 06:11:54;;;;;;;1.63;1.00;;;;;;;;;;4981531;28;20115;-66
2024/03/23 06:14:21;;;;;;;1.75;1.00;;;;;;;;;;4983580;28;20070;-67
2024/03/23 06:16:49;;;;;;;1.35;0.93;;;;;;;;;;4982765;28;20050;-66
2024/03/23 06:19:15;;;;;;;1.25;1.08;;;;;;;;;;4974590;28;20555;-67
2024/03/23 06:21:44;;;;;;;1.20;1.10;;;;;;;;;;4982710;28;20054;-65
2024/03/23 06:24:13;;;;;;;1.10;1.00;;;;;;;;;;4976768;28;20099;-65
2024/03/23 06:26:40;;;;;;;2.00;1.30;;;;;;;;;;4972706;28;20472;-67
2024/03/23 06:29:06;;;;;;;1.35;0.85;;;;;;;;;;4975217;28;20057;-67
2024/03/23 06:31:34;;;;;;;1.48;0.90;;;;;;;;;;4976189;28;20148;-67
2024/03/23 06:34:01;;;;;;;1.83;1.10;;;;;;;;;;4978648;28;20469;-66
2024/03/23 06:36:30;;;;;;;1.40;0.80;;;;;;;;;;4980087;28;20046;-66
2024/03/23 06:38:56;;;;;;;2.75;1.00;;;;;;;;;;4977646;28;20054;-65
2024/03/23 06:41:25;;;;;;;1.20;1.00;;;;;;;;;;4982637;28;20054;-68
2024/03/23 06:43:52;;;;;;;0.98;0.80;;;;;;;;;;4983991;28;20054;-66
2024/03/23 06:46:19;;;;;;;1.38;1.08;;;;;;;;;;4970357;28;20047;-67
2024/03/23 06:48:46;;;;;;;3.97;1.20;;;;;;;;;;4977002;28;20050;-67
2024/03/23 06:51:13;;;;;;;5.43;1.00;;;;;;;;;;4986213;28;20053;-64
2024/03/23 06:53:39;;;;;;;1.02;0.93;;;;;;;;;;4987334;28;20050;-66
2024/03/23 06:56:07;;;;;;;1.55;1.10;;;;;;;;;;4985723;28;20479;-66
2024/03/23 06:58:35;;;;;;;2.70;0.80;;;;;;;;;;4985840;28;20554;-65
2024/03/23 07:01:02;;;;;;;0.80;0.70;;;;;;;;;;4985325;28;20411;-65
2024/03/23 07:03:28;;;;;;;2.72;1.00;;;;;;;;;;4980861;28;20058;-65
2024/03/23 07:05:59;;;;;;;1.10;0.90;;;;;;;;;;4985155;28;20058;-66
2024/03/23 07:08:26;;;;;;;1.20;0.90;;;;;;;;;;4986843;28;20419;-67
2024/03/23 07:10:53;;;;;;;1.70;1.00;;;;;;;;;;4988648;28;20084;-68
2024/03/23 07:13:20;;;;;;;2.42;1.00;;;;;;;;;;4986427;28;20572;-66
2024/03/23 07:15:55;;;;;;;1.33;0.90;;;;;;;;;;4986424;28;20050;-65
2024/03/23 07:18:21;;;;;;;1.75;0.95;;;;;;;;;;5001358;28;20053;-67
2024/03/23 07:20:53;;;;;;;0.90;0.90;;;;;;;;;;5005453;28;20054;-66
2024/03/23 07:23:20;;;;;;;2.50;1.05;;;;;;;;;;5005250;28;20136;-67
2024/03/23 07:25:57;;;;;;;1.77;1.15;;;;;;;;;;5003954;28;20160;-67
2024/03/23 07:28:23;;;;;;;1.40;1.00;;;;;;;;;;5067501;28;20052;-67
2024/03/23 07:31:02;;;;;;;2.22;0.98;;;;;;;;;;5085050;28;20618;-68
2024/03/23 07:33:29;;;;;;;1.13;1.02;;;;;;;;;;5087635;28;20554;-69
2024/03/23 07:35:56;;;;;;;1.08;0.80;;;;;;;;;;5085951;28;20100;-68
2024/03/23 07:38:22;;;;;;;2.25;1.10;;;;;;;;;;5086870;28;20084;-65
2024/03/23 07:40:55;;;;;;;2.20;1.10;;;;;;;;;;5086142;28;20105;-65
2024/03/23 07:43:21;;;;;;;1.42;0.75;;;;;;;;;;5087163;28;20060;-66
2024/03/23 07:45:53;;;;;;;2.10;1.40;;;;;;;;;;5086262;28;20044;-66
2024/03/23 07:48:22;;;;;;;3.25;1.42;;;;;;;;;;5018281;28;20508;-70
2024/03/23 07:50:57;;;;;;;1.20;1.10;;;;;;;;;;4998360;28;20190;-67
2024/03/23 07:53:23;;;;;;;2.95;1.00;;;;;;;;;;5012576;28;20052;-67
2024/03/23 07:55:54;;;;;;;1.35;1.00;;;;;;;;;;5009964;28;20058;-69
2024/03/23 07:58:20;;;;;;;1.42;1.33;;;;;;;;;;4989613;28;20041;-69
2024/03/23 08:00:48;;;;;;;1.10;0.90;;;;;;;;;;4983169;28;20061;-73
2024/03/23 08:03:14;;;;;;;0.98;0.90;;;;;;;;;;4983142;28;20058;-67
2024/03/23 08:05:43;;;;;;;1.83;0.88;;;;;;;;;;4993345;28;20055;-71
2024/03/23 08:08:10;;;;;;;2.40;1.05;;;;;;;;;;4992821;28;20062;-67
2024/03/23 08:10:38;;;;;;;1.20;1.10;;;;;;;;;;4984802;28;20062;-64
2024/03/23 08:13:05;;;;;;;1.00;0.90;;;;;;;;;;4985877;28;20463;-68
2024/03/23 08:15:33;;;;;;;2.72;1.20;;;;;;;;;;4985956;28;20052;-71
2024/03/23 08:18:00;;;;;;;1.23;1.00;;;;;;;;;;4978996;28;20507;-63
2024/03/23 08:20:28;;;;;;;1.98;1.13;;;;;;;;;;4982971;28;20058;-63
2024/03/23 08:22:55;;;;;;;1.38;1.27;;;;;;;;;;4981959;28;20054;-65
2024/03/23 08:25:23;;;;;;;2.05;1.20;;;;;;;;;;4977474;28;20053;-62
2024/03/23 08:27:49;;;;;;;1.55;1.25;;;;;;;;;;4983435;28;20051;-64
2024/03/23 08:30:17;;;;;;;2.60;1.40;;;;;;;;;;4982787;28;20515;-62
2024/03/23 08:32:43;;;;;;;2.20;1.30;;;;;;;;;;4977988;28;20042;-63
2024/03/23 08:35:10;;;;;;;2.95;1.33;;;;;;;;;;4971511;28;20508;-67
2024/03/23 08:37:37;;;;;;;1.30;1.00;;;;;;;;;;4999723;28;20120;-63
2024/03/23 08:40:06;;;;;;;1.10;0.90;;;;;;;;;;5005155;28;20046;-67
2024/03/23 08:42:33;;;;;;;2.90;1.35;;;;;;;;;;5005657;28;20503;-64
2024/03/23 08:45:00;;;;;;;1.42;1.02;;;;;;;;;;5006224;28;20517;-64
2024/03/23 08:47:26;;;;;;;1.33;1.17;;;;;;;;;;5004782;28;20096;-65
2024/03/23 08:49:55;;;;;;;1.90;0.95;;;;;;;;;;5005919;28;20061;-66
2024/03/23 08:52:23;;;;;;;1.20;1.10;;;;;;;;;;5005772;28;20511;-69
2024/03/23 08:54:50;;;;;;;2.10;1.33;;;;;;;;;;5003871;28;20515;-65
2024/03/23 08:57:18;;;;;;;1.52;1.23;;;;;;;;;;5002287;28;20042;-65
2024/03/23 08:59:45;;;;;;;1.75;0.98;;;;;;;;;;5005863;28;20049;-65
2024/03/23 09:02:12;;;;;;;1.40;1.20;;;;;;;;;;5004375;28;20057;-65
2024/03/23 09:04:39;;;;;;;1.80;1.10;;;;;;;;;;5004949;28;20061;-63
2024/03/23 09:07:06;;;;;;;1.92;1.17;;;;;;;;;;5000926;28;20041;-65
2024/03/23 09:09:33;;;;;;;1.50;1.10;;;;;;;;;;5008620;28;20044;-66
2024/03/23 09:11:59;;;;;;;1.10;1.00;;;;;;;;;;5003360;28;20058;-63
2024/03/23 09:14:29;;;;;;;2.17;1.25;;;;;;;;;;5002237;28;20049;-64
2024/03/23 09:16:56;;;;;;;2.03;1.13;;;;;;;;;;5003877;28;20042;-62
2024/03/23 09:19:23;;;;;;;1.48;1.20;;;;;;;;;;5004605;28;20103;-64
2024/03/23 09:21:50;;;;;;;2.40;1.40;;;;;;;;;;5002556;28;20061;-58
2024/03/23 09:24:17;;;;;;;1.58;1.33;;;;;;;;;;5008420;28;20058;-57
2024/03/23 09:26:43;;;;;;;1.75;1.30;;;;;;;;;;5002118;28;20072;-57
2024/03/23 09:29:11;;;;;;;1.13;1.00;;;;;;;;;;5003934;28;20426;-58
2024/03/23 09:31:39;;;;;;;1.48;1.10;;;;;;;;;;4999496;28;20051;-57
2024/03/23 09:34:06;;;;;;;1.40;1.27;;;;;;;;;;5003235;28;20107;-59
2024/03/23 09:36:32;;;;;;;1.90;1.08;;;;;;;;;;4995665;28;20084;-58
2024/03/23 09:39:00;;;;;;;1.20;1.05;;;;;;;;;;4984977;28;20502;-59
2024/03/23 09:41:26;;;;;;;1.13;0.98;;;;;;;;;;4984612;28;20050;-57
2024/03/23 09:43:54;;;;;;;0.75;0.75;;;;;;;;;;4983810;28;20058;-57
2024/03/23 09:46:21;;;;;;;0.73;0.73;;;;;;;;;;4987648;28;20337;-58
2024/03/23 09:48:49;;;;;;;0.75;0.70;;;;;;;;;;5002914;28;20102;-57
2024/03/23 09:51:16;;;;;;;0.93;0.93;;;;;;;;;;5003367;28;20457;-56
2024/03/23 09:53:43;;;;;;;0.77;0.77;;;;;;;;;;4997381;28;20096;-57
2024/03/23 09:56:10;;;;;;;0.98;0.73;;;;;;;;;;5002475;28;20099;-58
2024/03/23 09:58:38;;;;;;;2.03;1.40;;;;;;;;;;5001537;28;20062;-61
2024/03/23 10:01:04;;;;;;;1.48;0.90;;;;;;;;;;5003307;28;20042;-56
2024/03/23 10:03:32;;;;;;;0.60;0.60;;;;;;;;;;5003734;28;20411;-57
2024/03/23 10:06:04;;;;;;;0.80;0.80;;;;;;;;;;5003689;28;20056;-57
2024/03/23 10:08:33;;;;;;;1.38;0.77;;;;;;;;;;5006246;28;20051;-58
2024/03/23 10:11:12;;;;;;;0.63;0.63;;;;;;;;;;5001987;28;20061;-56
2024/03/23 10:13:42;;;;;;;0.80;0.70;;;;;;;;;;5074781;28;20073;-56
2024/03/23 10:16:09;;;;;;;0.77;0.77;;;;;;;;;;5004061;28;20490;-56
2024/03/23 10:18:39;;;;;;;0.50;0.50;;;;;;;;;;5003399;28;20054;-58
2024/03/23 10:21:11;;;;;;;0.60;0.60;;;;;;;;;;5001006;28;20087;-57
2024/03/23 10:23:39;;;;;;;0.57;0.57;;;;;;;;;;5001049;28;20046;-58
2024/03/23 10:26:16;;;;;;;1.38;0.63;;;;;;;;;;5001111;28;20046;-58
2024/03/23 10:28:53;;;;;;;0.68;0.68;;;;;;;;;;5004881;28;20054;-56
2024/03/23 10:31:22;;;;;;;1.08;0.80;;;;;;;;;;5004276;28;20095;-59
2024/03/23 10:33:49;;;;;;;1.00;0.90;;;;;;;;;;5004347;28;20128;-57
2024/03/23 10:36:18;;;;;;;2.47;0.77;;;;;;;;;;5005676;28;20072;-59
2024/03/23 10:38:46;;;;;;;0.60;0.60;;;;;;;;;;5005195;28;20054;-58
2024/03/23 10:41:12;;;;;;;2.67;0.90;;;;;;;;;;5007033;28;20058;-60
2024/03/23 10:43:40;;;;;;;1.52;0.70;;;;;;;;;;5007226;28;20054;-60
2024/03/23 10:46:06;;;;;;;0.77;0.70;;;;;;;;;;5006764;28;20447;-61
2024/03/23 10:48:34;;;;;;;0.73;0.68;;;;;;;;;;5006965;28;20096;-61
2024/03/23 10:51:00;;;;;;;0.73;0.70;;;;;;;;;;5007854;28;20057;-58
2024/03/23 10:53:29;;;;;;;1.80;0.80;;;;;;;;;;5001786;28;20053;-59
2024/03/23 10:55:56;;;;;;;0.80;0.70;;;;;;;;;;5006876;28;20058;-61
2024/03/23 10:58:26;;;;;;;0.85;0.63;;;;;;;;;;5012110;28;20046;-59
2024/03/23 11:00:53;;;;;;;0.80;0.80;;;;;;;;;;5006895;28;20460;-61
2024/03/23 11:03:34;;;;;;;1.52;0.80;;;;;;;;;;5007580;28;20062;-58
2024/03/23 11:06:01;;;;;;;2.38;0.70;;;;;;;;;;5009110;28;20050;-58
2024/03/23 11:08:33;;;;;;;0.85;0.70;;;;;;;;;;5010282;28;20394;-62
2024/03/23 11:11:13;;;;;;;1.33;0.60;;;;;;;;;;5005448;28;20058;-59
2024/03/23 11:13:40;;;;;;;1.90;0.90;;;;;;;;;;5006767;28;20049;-59
2024/03/23 11:16:16;;;;;;;2.95;0.70;;;;;;;;;;5007184;28;20058;-59
2024/03/23 11:18:44;;;;;;;0.77;0.60;;;;;;;;;;5019636;28;20046;-58
2024/03/23 11:21:11;;;;;;;0.50;0.50;;;;;;;;;;5006407;28;20050;-61
2024/03/23 11:23:40;;;;;;;0.73;0.60;;;;;;;;;;4997859;28;20061;-58
2024/03/23 11:26:09;;;;;;;1.30;0.80;;;;;;;;;;5005607;28;20054;-60
2024/03/23 11:28:36;;;;;;;0.63;0.63;;;;;;;;;;5006340;28;20062;-59
2024/03/23 11:31:10;;;;;;;0.73;0.73;;;;;;;;;;5006031;28;20053;-61
2024/03/23 11:33:37;;;;;;;0.75;0.65;;;;;;;;;;5006157;28;20056;-63
2024/03/23 11:36:04;;;;;;;0.90;0.70;;;;;;;;;;5005787;28;20054;-62
2024/03/23 11:38:38;;;;;;;0.60;0.60;;;;;;;;;;5005516;28;20073;-61
2024/03/23 11:41:05;;;;;;;0.90;0.60;;;;;;;;;;5007347;28;20049;-59
2024/03/23 11:43:33;;;;;;;1.85;0.90;;;;;;;;;;5006408;28;20494;-60
2024/03/23 11:46:03;;;;;;;0.60;0.60;;;;;;;;;;5006219;28;20046;-60
2024/03/23 11:48:30;;;;;;;1.92;1.15;;;;;;;;;;5005730;28;20050;-59
2024/03/23 11:50:57;;;;;;;0.73;0.73;;;;;;;;;;4998058;28;20120;-60
2024/03/23 11:53:27;;;;;;;0.90;0.60;;;;;;;;;;5006674;28;20509;-60
2024/03/23 11:55:54;;;;;;;0.63;0.63;;;;;;;;;;5005991;28;20057;-60
2024/03/23 11:58:24;;;;;;;1.48;0.77;;;;;;;;;;4986544;28;20053;-61
2024/03/23 12:00:51;;;;;;;0.68;0.68;;;;;;;;;;4986281;28;20466;-60
2024/03/23 12:03:21;;;;;;;0.88;0.77;;;;;;;;;;4986790;28;20058;-61
2024/03/23 12:05:53;;;;;;;1.02;0.80;;;;;;;;;;4986829;28;20051;-60
2024/03/23 12:08:22;;;;;;;1.30;0.80;;;;;;;;;;5015063;28;20054;-61
2024/03/23 12:10:49;;;;;;;1.65;0.80;;;;;;;;;;5005755;28;20472;-60
2024/03/23 12:13:18;;;;;;;1.73;0.88;;;;;;;;;;5004302;28;20057;-60
2024/03/23 12:15:46;;;;;;;1.52;0.90;;;;;;;;;;5002908;28;20352;-60
2024/03/23 12:18:14;;;;;;;2.67;0.80;;;;;;;;;;5006271;28;20042;-59
2024/03/23 12:20:41;;;;;;;1.00;0.75;;;;;;;;;;5020251;28;20103;-60
2024/03/23 12:23:12;;;;;;;1.00;0.80;;;;;;;;;;5006490;28;20054;-61
2024/03/23 12:25:39;;;;;;;1.00;0.88;;;;;;;;;;5005430;28;20115;-60
2024/03/23 12:28:10;;;;;;;2.33;0.82;;;;;;;;;;5004552;28;20474;-60
2024/03/23 12:30:36;;;;;;;1.17;0.93;;;;;;;;;;5011144;28;20050;-61
2024/03/23 12:33:05;;;;;;;2.08;1.00;;;;;;;;;;5005629;28;20058;-62
2024/03/23 12:35:32;;;;;;;1.70;1.08;;;;;;;;;;5005757;28;20053;-62
2024/03/23 12:38:00;;;;;;;0.70;0.70;;;;;;;;;;5005648;28;20069;-61
2024/03/23 12:40:27;;;;;;;2.00;1.23;;;;;;;;;;5005635;28;20110;-62
2024/03/23 12:42:55;;;;;;;3.40;1.15;;;;;;;;;;5044742;28;20105;-59
2024/03/23 12:45:22;;;;;;;1.83;1.00;;;;;;;;;;5008909;28;20422;-60
2024/03/23 12:47:49;;;;;;;1.20;1.10;;;;;;;;;;5005031;28;20491;-63
2024/03/23 12:50:17;;;;;;;2.35;1.48;;;;;;;;;;5005235;28;20054;-63
2024/03/23 12:52:44;;;;;;;1.90;1.10;;;;;;;;;;5013755;28;20530;-60
2024/03/23 12:55:11;;;;;;;1.70;1.00;;;;;;;;;;5005271;28;20053;-58
2024/03/23 12:57:38;;;;;;;1.35;0.90;;;;;;;;;;5010115;28;20045;-60
2024/03/23 13:00:06;;;;;;;1.55;1.17;;;;;;;;;;5005510;28;20053;-60
2024/03/23 13:02:34;;;;;;;1.98;1.00;;;;;;;;;;5005484;28;20041;-61
2024/03/23 13:05:01;;;;;;;1.02;0.90;;;;;;;;;;4993965;28;20058;-60
2024/03/23 13:07:29;;;;;;;3.10;1.50;;;;;;;;;;5014094;28;20050;-60
2024/03/23 13:09:56;;;;;;;3.38;1.60;;;;;;;;;;5006197;28;20053;-60
2024/03/23 13:12:24;;;;;;;0.98;0.88;;;;;;;;;;5004141;28;20398;-59
2024/03/23 13:14:50;;;;;;;1.73;1.15;;;;;;;;;;5005654;28;20057;-61
2024/03/23 13:17:18;;;;;;;2.22;1.20;;;;;;;;;;5004431;28;20410;-63
2024/03/23 13:19:44;;;;;;;1.95;1.05;;;;;;;;;;5004321;28;20060;-60
2024/03/23 13:22:12;;;;;;;2.88;1.10;;;;;;;;;;5005309;28;20069;-60
2024/03/23 13:24:39;;;;;;;1.63;1.20;;;;;;;;;;5006033;28;20077;-59
2024/03/23 13:27:07;;;;;;;1.88;1.20;;;;;;;;;;5004024;28;20057;-61
2024/03/23 13:29:34;;;;;;;4.38;1.85;;;;;;;;;;5004662;28;20062;-61
2024/03/23 13:32:02;;;;;;;1.88;1.40;;;;;;;;;;5008415;28;20372;-60
2024/03/23 13:34:29;;;;;;;2.35;2.00;;;;;;;;;;5028581;28;20057;-59
2024/03/23 13:36:58;;;;;;;3.45;1.58;;;;;;;;;;5005331;28;20090;-61
2024/03/23 13:39:25;;;;;;;3.60;1.38;;;;;;;;;;5005701;28;20107;-60
2024/03/23 13:41:54;;;;;;;18.23;10.40;;;;;;;;;;5004802;28;20061;-61
2024/03/23 13:44:20;;;;;;;5.50;3.13;;;;;;;;;;4996649;28;20050;-60
2024/03/23 13:46:48;;;;;;;4.60;2.78;;;;;;;;;;5004386;28;20042;-62
2024/03/23 13:49:24;;;;;;;4.63;1.63;;;;;;;;;;5005849;28;20049;-59
2024/03/23 13:51:52;;;;;;;3.13;1.42;;;;;;;;;;5004596;28;20053;-64
2024/03/23 13:54:18;;;;;;;4.05;2.10;;;;;;;;;;5002841;28;20042;-60
2024/03/23 13:56:46;;;;;;;1.60;1.50;;;;;;;;;;5033695;28;20040;-60
2024/03/23 13:59:13;;;;;;;2.80;1.70;;;;;;;;;;5086693;28;20402;-60
2024/03/23 14:01:41;;;;;;;2.80;1.63;;;;;;;;;;5087522;28;20504;-59
2024/03/23 14:04:08;;;;;;;2.28;1.38;;;;;;;;;;5091895;28;20056;-58
2024/03/23 14:06:35;;;;;;;3.20;1.40;;;;;;;;;;5060087;28;20049;-61
2024/03/23 14:09:03;;;;;;;1.60;1.15;;;;;;;;;;4979936;28;20404;-59
2024/03/23 14:11:31;;;;;;;2.17;1.35;;;;;;;;;;5001800;28;20500;-61
2024/03/23 14:13:57;;;;;;;4.10;1.90;;;;;;;;;;4987396;28;20050;-58
2024/03/23 14:16:26;;;;;;;3.30;1.48;;;;;;;;;;4988355;28;20096;-58
2024/03/23 14:18:52;;;;;;;6.93;2.40;;;;;;;;;;5001745;28;20057;-59
2024/03/23 14:21:20;;;;;;;7.38;4.63;;;;;;;;;;4988810;28;20342;-59
2024/03/23 14:23:46;;;;;;;5.68;4.13;;;;;;;;;;4987763;28;20069;-59
2024/03/23 14:26:14;;;;;;;6.07;3.28;;;;;;;;;;4987972;28;20051;-58
2024/03/23 14:28:40;;;;;;;4.55;2.35;;;;;;;;;;5019208;28;20423;-58
2024/03/23 14:31:10;;;;;;;5.18;2.55;;;;;;;;;;4991363;28;20066;-58
2024/03/23 14:33:38;;;;;;;5.50;3.13;;;;;;;;;;4987278;28;20073;-62
2024/03/23 14:36:06;;;;;;;6.53;2.30;;;;;;;;;;4986812;28;20111;-59
2024/03/23 14:38:33;;;;;;;4.80;2.50;;;;;;;;;;4987487;28;20054;-61
2024/03/23 14:41:01;;;;;;;2.67;1.90;;;;;;;;;;4988704;28;20054;-59
2024/03/23 14:43:27;;;;;;;3.28;1.63;;;;;;;;;;4987960;28;20062;-60
2024/03/23 14:46:07;;;;;;;2.90;1.50;;;;;;;;;;4993817;28;20058;-62